CQH1097 ZLDH-ZLXY
Flight info
| Callsign | CQH1097 |
|---|---|
| Flight time | N/A |
| Altitude | 31100 |
| Route | VIKUP1 VIKUP W191 DNC W565 BIGUX W214 HO HO1Z |
| Aircraft | A320/M-SDE3FGHIRWY/LB1 |
Departure
| Time | 2026-05-05 15:47 |
|---|---|
| Airport | Dunhuang Mogao International Airport (ZLDH) |
Arrival
| Time | N/A |
|---|---|
| Airport | Xi'an Xianyang International Airport (ZLXY) |
| Time | Latitude | Longitude | Altitude | Speed | Heading |
|---|---|---|---|---|---|
| 2026-05-05 15:30 | 40.16500 | 94.80605 | 3691 ft | 0 kts | 354° |
| 2026-05-05 15:38 | 40.16478 | 94.80608 | 3700 ft | 4 kts | 352° |
| 2026-05-05 15:38 | 40.16442 | 94.80617 | 3696 ft | 4 kts | 344° |
| 2026-05-05 15:38 | 40.16425 | 94.80624 | 3700 ft | 4 kts | 336° |
| 2026-05-05 15:39 | 40.16404 | 94.80642 | 3699 ft | 4 kts | 298° |
| 2026-05-05 15:39 | 40.16401 | 94.80661 | 3702 ft | 0 kts | 264° |
| 2026-05-05 15:42 | 40.16400 | 94.80656 | 3706 ft | 3 kts | 264° |
| 2026-05-05 15:42 | 40.16398 | 94.80623 | 3696 ft | 8 kts | 264° |
| 2026-05-05 15:43 | 40.16390 | 94.80518 | 3696 ft | 16 kts | 264° |
| 2026-05-05 15:43 | 40.16376 | 94.80359 | 3696 ft | 18 kts | 265° |
| 2026-05-05 15:43 | 40.16340 | 94.80242 | 3696 ft | 14 kts | 195° |
| 2026-05-05 15:43 | 40.16251 | 94.80251 | 3695 ft | 12 kts | 174° |
| 2026-05-05 15:44 | 40.16163 | 94.80262 | 3690 ft | 14 kts | 175° |
| 2026-05-05 15:44 | 40.16110 | 94.80183 | 3689 ft | 12 kts | 263° |
| 2026-05-05 15:44 | 40.16100 | 94.80079 | 3688 ft | 11 kts | 264° |
| 2026-05-05 15:44 | 40.16093 | 94.79988 | 3688 ft | 9 kts | 264° |
| 2026-05-05 15:45 | 40.16088 | 94.79909 | 3687 ft | 10 kts | 265° |
| 2026-05-05 15:45 | 40.16079 | 94.79785 | 3687 ft | 17 kts | 264° |
| 2026-05-05 15:45 | 40.16067 | 94.79621 | 3687 ft | 19 kts | 265° |
| 2026-05-05 15:45 | 40.16075 | 94.79471 | 3687 ft | 14 kts | 288° |
| 2026-05-05 15:46 | 40.16098 | 94.79380 | 3689 ft | 7 kts | 279° |
| 2026-05-05 15:46 | 40.16098 | 94.79329 | 3690 ft | 5 kts | 263° |
| 2026-05-05 15:46 | 40.16078 | 94.79280 | 3689 ft | 6 kts | 204° |
| 2026-05-05 15:46 | 40.16044 | 94.79309 | 3688 ft | 6 kts | 117° |
| 2026-05-05 15:47 | 40.16043 | 94.79340 | 3687 ft | 0 kts | 81° |
| 2026-05-05 15:47 | 40.16048 | 94.79387 | 3687 ft | 22 kts | 84° |
| 2026-05-05 15:47 | 40.16090 | 94.79927 | 3688 ft | 93 kts | 84° |
| 2026-05-05 15:47 | 40.16179 | 94.81020 | 3693 ft | 147 kts | 83° |
| 2026-05-05 15:48 | 40.16313 | 94.82531 | 3855 ft | 178 kts | 79° |
| 2026-05-05 15:48 | 40.16447 | 94.84115 | 4599 ft | 173 kts | 80° |
| 2026-05-05 15:48 | 40.16564 | 94.85683 | 5165 ft | 178 kts | 82° |
| 2026-05-05 15:48 | 40.16695 | 94.87387 | 5346 ft | 199 kts | 82° |
| 2026-05-05 15:49 | 40.16844 | 94.89304 | 5543 ft | 224 kts | 82° |
| 2026-05-05 15:49 | 40.17010 | 94.91439 | 5817 ft | 247 kts | 82° |
| 2026-05-05 15:49 | 40.17187 | 94.93737 | 6290 ft | 259 kts | 83° |
| 2026-05-05 15:49 | 40.17368 | 94.96107 | 6967 ft | 266 kts | 84° |
| 2026-05-05 15:50 | 40.17552 | 94.98534 | 7695 ft | 270 kts | 84° |
| 2026-05-05 15:50 | 40.17739 | 95.00996 | 8464 ft | 274 kts | 84° |
| 2026-05-05 15:50 | 40.17929 | 95.03503 | 9190 ft | 280 kts | 84° |
| 2026-05-05 15:50 | 40.18122 | 95.06076 | 9838 ft | 288 kts | 86° |
| 2026-05-05 15:51 | 40.17908 | 95.08747 | 10180 ft | 308 kts | 109° |
| 2026-05-05 15:51 | 40.16748 | 95.11190 | 10383 ft | 331 kts | 136° |
| 2026-05-05 15:51 | 40.14724 | 95.12762 | 10632 ft | 350 kts | 165° |
| 2026-05-05 15:51 | 40.12287 | 95.13252 | 11085 ft | 360 kts | 174° |
| 2026-05-05 15:52 | 40.09787 | 95.13588 | 11732 ft | 364 kts | 175° |
| 2026-05-05 15:52 | 40.07244 | 95.13905 | 12378 ft | 369 kts | 175° |
| 2026-05-05 15:52 | 40.04676 | 95.14222 | 13035 ft | 373 kts | 175° |
| 2026-05-05 15:52 | 40.02109 | 95.14543 | 13629 ft | 378 kts | 175° |
| 2026-05-05 15:53 | 39.99445 | 95.14883 | 14266 ft | 381 kts | 175° |
| 2026-05-05 15:53 | 39.96857 | 95.15402 | 14860 ft | 384 kts | 166° |
| 2026-05-05 15:53 | 39.94318 | 95.16668 | 15421 ft | 389 kts | 153° |
| 2026-05-05 15:53 | 39.92097 | 95.18622 | 15613 ft | 392 kts | 138° |
| 2026-05-05 15:54 | 39.90293 | 95.21260 | 15705 ft | 391 kts | 122° |
| 2026-05-05 15:54 | 39.89002 | 95.24357 | 15699 ft | 389 kts | 114° |
| 2026-05-05 15:54 | 39.87834 | 95.27526 | 15700 ft | 388 kts | 114° |
| 2026-05-05 15:54 | 39.86642 | 95.30706 | 16005 ft | 394 kts | 115° |
| 2026-05-05 15:55 | 39.85414 | 95.33946 | 16681 ft | 395 kts | 115° |
| 2026-05-05 15:55 | 39.84190 | 95.37155 | 17304 ft | 397 kts | 115° |
| 2026-05-05 15:55 | 39.82954 | 95.40390 | 17826 ft | 402 kts | 115° |
| 2026-05-05 15:55 | 39.81726 | 95.43610 | 18380 ft | 404 kts | 115° |
| 2026-05-05 15:56 | 39.80472 | 95.46897 | 18886 ft | 408 kts | 116° |
| 2026-05-05 15:56 | 39.79189 | 95.50254 | 19357 ft | 412 kts | 115° |
| 2026-05-05 15:56 | 39.77912 | 95.53605 | 19812 ft | 414 kts | 115° |
| 2026-05-05 15:56 | 39.76652 | 95.56924 | 20283 ft | 418 kts | 115° |
| 2026-05-05 15:57 | 39.75368 | 95.60336 | 20726 ft | 422 kts | 115° |
| 2026-05-05 15:57 | 39.74077 | 95.63775 | 21168 ft | 425 kts | 115° |
| 2026-05-05 15:57 | 39.72776 | 95.67239 | 21592 ft | 428 kts | 115° |
| 2026-05-05 15:57 | 39.71462 | 95.70731 | 22001 ft | 431 kts | 115° |
| 2026-05-05 15:58 | 39.70138 | 95.74233 | 22505 ft | 433 kts | 116° |
| 2026-05-05 15:58 | 39.68799 | 95.77759 | 22936 ft | 436 kts | 116° |
| 2026-05-05 15:58 | 39.67455 | 95.81295 | 23337 ft | 439 kts | 116° |
| 2026-05-05 15:58 | 39.66097 | 95.84865 | 23726 ft | 442 kts | 116° |
| 2026-05-05 15:59 | 39.64728 | 95.88459 | 24061 ft | 445 kts | 116° |
| 2026-05-05 15:59 | 39.63353 | 95.92060 | 24411 ft | 447 kts | 116° |
| 2026-05-05 15:59 | 39.61969 | 95.95687 | 24762 ft | 449 kts | 116° |
| 2026-05-05 15:59 | 39.60583 | 95.99322 | 25110 ft | 451 kts | 117° |
| 2026-05-05 16:00 | 39.59187 | 96.02978 | 25436 ft | 454 kts | 117° |
| 2026-05-05 16:00 | 39.57780 | 96.06658 | 25754 ft | 456 kts | 117° |
| 2026-05-05 16:00 | 39.56366 | 96.10350 | 26074 ft | 458 kts | 117° |
| 2026-05-05 16:00 | 39.54938 | 96.14050 | 26421 ft | 460 kts | 118° |
| 2026-05-05 16:01 | 39.53484 | 96.17762 | 26739 ft | 463 kts | 118° |
| 2026-05-05 16:01 | 39.52014 | 96.21477 | 27047 ft | 465 kts | 118° |
| 2026-05-05 16:01 | 39.50529 | 96.25211 | 27362 ft | 468 kts | 118° |
| 2026-05-05 16:01 | 39.49035 | 96.28960 | 27691 ft | 470 kts | 119° |
| 2026-05-05 16:02 | 39.47532 | 96.32733 | 27969 ft | 473 kts | 119° |
| 2026-05-05 16:02 | 39.46025 | 96.36522 | 28247 ft | 475 kts | 119° |
| 2026-05-05 16:02 | 39.44508 | 96.40336 | 28534 ft | 478 kts | 119° |
| 2026-05-05 16:02 | 39.42988 | 96.44162 | 28809 ft | 480 kts | 119° |
| 2026-05-05 16:03 | 39.41456 | 96.48014 | 29071 ft | 482 kts | 119° |
| 2026-05-05 16:03 | 39.39926 | 96.51867 | 29399 ft | 483 kts | 119° |
| 2026-05-05 16:03 | 39.38386 | 96.55734 | 29726 ft | 484 kts | 119° |
| 2026-05-05 16:03 | 39.36842 | 96.59600 | 30020 ft | 485 kts | 119° |
| 2026-05-05 16:04 | 39.35296 | 96.63471 | 30356 ft | 485 kts | 119° |
| 2026-05-05 16:04 | 39.33748 | 96.67344 | 30671 ft | 484 kts | 120° |
| 2026-05-05 16:04 | 39.32200 | 96.71206 | 30983 ft | 483 kts | 120° |
| 2026-05-05 16:04 | 39.30653 | 96.75058 | 31209 ft | 483 kts | 120° |
| 2026-05-05 16:05 | 39.29112 | 96.78891 | 31266 ft | 480 kts | 120° |
| 2026-05-05 16:05 | 39.26054 | 96.86505 | 31273 ft | 477 kts | 120° |
| 2026-05-05 16:06 | 39.23044 | 96.94114 | 31276 ft | 476 kts | 120° |
| 2026-05-05 16:06 | 39.20045 | 97.01732 | 31282 ft | 476 kts | 120° |
| 2026-05-05 16:07 | 39.17029 | 97.09335 | 31291 ft | 476 kts | 120° |
| 2026-05-05 16:07 | 39.14005 | 97.16927 | 31289 ft | 476 kts | 120° |
| 2026-05-05 16:08 | 39.10981 | 97.24508 | 31268 ft | 476 kts | 120° |
| 2026-05-05 16:08 | 39.07944 | 97.32098 | 31278 ft | 477 kts | 120° |
| 2026-05-05 16:09 | 39.04897 | 97.39684 | 31283 ft | 478 kts | 120° |
| 2026-05-05 16:09 | 39.01849 | 97.47282 | 31285 ft | 478 kts | 120° |
| 2026-05-05 16:10 | 38.98794 | 97.54870 | 31288 ft | 478 kts | 120° |
| 2026-05-05 16:10 | 38.95729 | 97.62453 | 31272 ft | 478 kts | 121° |
| 2026-05-05 16:11 | 38.92645 | 97.70041 | 31280 ft | 479 kts | 121° |
| 2026-05-05 16:12 | 38.86374 | 97.85168 | 31283 ft | 480 kts | 121° |
| 2026-05-05 16:13 | 38.78504 | 98.04099 | 31282 ft | 482 kts | 121° |
| 2026-05-05 16:13 | 38.75338 | 98.11676 | 31287 ft | 482 kts | 121° |
| 2026-05-05 16:14 | 38.68994 | 98.26815 | 31289 ft | 483 kts | 121° |
| 2026-05-05 16:15 | 38.62631 | 98.41935 | 31284 ft | 483 kts | 122° |
| 2026-05-05 16:16 | 38.56234 | 98.57040 | 31288 ft | 483 kts | 122° |
| 2026-05-05 16:17 | 38.51430 | 98.68351 | 31288 ft | 483 kts | 122° |
| 2026-05-05 16:18 | 38.46593 | 98.79656 | 31282 ft | 484 kts | 122° |
| 2026-05-05 16:19 | 38.41752 | 98.90977 | 31281 ft | 485 kts | 122° |